- বাংলা English

 * * Phone: +880 29135742, 9123838, 9141437 | FAX: +880 2 8118230, 58152019*   

TAF


TAF VGHS 211700Z 2118/2224 16008KT 3500HZ SCT012 BKN100
    BECMG 2203/2205 22010KT 4000HZ SCT015 BKN100
    TEMPO 2118/2209 30025G35KT 2000 RA/TSRA BKN007 FEW025CB OVC090
    BECMG 2209/2211  14008KT FEW015 SCT100
    BECMG 2218/2220 16005KT 3500HZ SCCT015 BKN100=

TAF VGEG 211100Z 2112/2218 24012KT 5000 HZ SCT016
  BECMG 2122/2124 00000KT 3100 HZ SCT016
  BECMG 2204/2206 23010KT 5000 HZ SCT016
  TEMPO 2210/2214 32025G35KT 1500 RA/TSRA SCT007 FEW025CB BKN090
  BECMG 2115/2117 28006KT 4000 HZ SCT016=

TAF VGSY 211000Z 2112/2218 21005KT 4500HZ SCT015 BKN100
BECMG 2118/2120 06004KT 3500HZ SCT015 BKN100
BECMG 2123/2201 04004KT 3000HZ SCT012 BKN100 2203/2205 09005KT 3500HZ SCT015 SCT120
TEMPO 2112/2206 29030G40KT 1500TSRA/RA BKN006 FEW025CB OVC080=